createdAt,value
2023-03-26T00:01:38.373Z,7.76
2023-03-26T00:04:05.881Z,7.73
2023-03-26T00:06:36.714Z,7.74
2023-03-26T00:09:04.048Z,7.76
2023-03-26T00:11:30.768Z,7.75
2023-03-26T00:13:57.562Z,7.74
2023-03-26T00:16:28.289Z,7.74
2023-03-26T00:18:55.019Z,7.76
2023-03-26T00:21:27.852Z,7.76
2023-03-26T00:23:55.823Z,7.75
2023-03-26T00:26:22.560Z,7.74
2023-03-26T00:28:50.776Z,7.76
2023-03-26T00:31:17.324Z,7.77
2023-03-26T00:33:43.683Z,7.78
2023-03-26T00:36:14.685Z,7.80
2023-03-26T00:38:41.501Z,7.79
2023-03-26T00:41:18.008Z,7.81
2023-03-26T00:43:46.316Z,7.85
2023-03-26T00:46:12.843Z,7.87
2023-03-26T00:48:45.427Z,7.87
2023-03-26T00:51:15.251Z,7.89
2023-03-26T00:53:42.495Z,7.93
2023-03-26T00:56:09.071Z,7.90
2023-03-26T00:58:35.727Z,7.92
2023-03-26T01:01:03.804Z,7.90
2023-03-26T01:03:33.741Z,7.91
2023-03-26T01:06:08.183Z,7.92
2023-03-26T01:08:42.084Z,7.91
2023-03-26T01:11:14.217Z,7.89
2023-03-26T01:13:48.725Z,7.85
2023-03-26T01:16:20.314Z,7.83
2023-03-26T01:18:48.685Z,7.83
2023-03-26T01:21:22.446Z,7.81
2023-03-26T01:23:59.850Z,7.81
2023-03-26T01:26:57.263Z,7.79
2023-03-26T01:29:33.798Z,7.78
2023-03-26T01:32:09.539Z,7.71
2023-03-26T01:34:43.051Z,7.66
2023-03-26T01:37:38.672Z,7.63
2023-03-26T01:40:23.810Z,7.61
2023-03-26T01:43:13.300Z,7.56
2023-03-26T01:45:40.284Z,7.49
2023-03-26T01:48:06.764Z,7.45
2023-03-26T01:50:33.515Z,7.42
2023-03-26T01:52:59.880Z,7.41
2023-03-26T01:55:29.988Z,7.43
2023-03-26T01:58:08.786Z,7.45
2023-03-26T02:00:42.609Z,7.45
2023-03-26T02:03:26.295Z,7.45
2023-03-26T02:05:58.008Z,7.45
2023-03-26T02:08:35.861Z,7.44
2023-03-26T02:11:05.237Z,7.43
2023-03-26T02:13:31.606Z,7.40
2023-03-26T02:16:02.000Z,7.38
2023-03-26T02:18:39.117Z,7.39
2023-03-26T02:21:09.846Z,7.37
2023-03-26T02:23:38.413Z,7.38
2023-03-26T02:26:11.153Z,7.36
2023-03-26T02:28:37.939Z,7.37
2023-03-26T02:31:04.911Z,7.39
2023-03-26T02:33:31.575Z,7.37
2023-03-26T02:36:04.537Z,7.34
2023-03-26T02:38:35.289Z,7.35
2023-03-26T02:41:02.418Z,7.35
2023-03-26T02:43:28.937Z,7.34
2023-03-26T02:45:58.510Z,7.34
2023-03-26T02:48:25.243Z,7.32
2023-03-26T02:50:54.208Z,7.29
2023-03-26T02:53:29.816Z,7.26
2023-03-26T02:55:57.300Z,7.26
2023-03-26T02:58:25.267Z,7.23
2023-03-26T03:00:54.936Z,7.27
2023-03-26T03:03:24.308Z,7.30
2023-03-26T03:05:52.229Z,7.29
2023-03-26T03:08:19.646Z,7.29
2023-03-26T03:11:11.976Z,7.26
2023-03-26T03:13:38.525Z,7.25
2023-03-26T03:16:05.572Z,7.21
2023-03-26T03:18:31.914Z,7.17
2023-03-26T03:20:58.489Z,7.14
2023-03-26T03:23:25.208Z,7.13
2023-03-26T03:25:52.717Z,7.13
2023-03-26T03:28:20.054Z,7.11
2023-03-26T03:30:47.214Z,7.11
2023-03-26T03:33:13.683Z,7.09
2023-03-26T03:35:41.455Z,7.05
2023-03-26T03:38:07.932Z,7.04
2023-03-26T03:40:34.463Z,7.04
2023-03-26T03:43:00.846Z,7.02
2023-03-26T03:45:27.237Z,6.97
2023-03-26T03:47:54.215Z,6.94
2023-03-26T03:50:21.030Z,6.93
2023-03-26T03:52:47.381Z,6.88
2023-03-26T03:55:14.075Z,6.90
2023-03-26T03:57:40.526Z,6.86
2023-03-26T04:00:10.247Z,6.86
2023-03-26T04:02:36.736Z,6.86
2023-03-26T04:05:04.023Z,6.84
2023-03-26T04:07:31.150Z,6.83
2023-03-26T04:10:00.124Z,6.82
2023-03-26T04:12:29.877Z,6.83
2023-03-26T04:14:56.549Z,6.84
2023-03-26T04:17:23.051Z,6.85
2023-03-26T04:19:50.569Z,6.87
2023-03-26T04:22:18.329Z,6.90
2023-03-26T04:24:45.124Z,6.94
2023-03-26T04:27:13.359Z,6.94
2023-03-26T04:29:44.103Z,6.97
2023-03-26T04:32:12.624Z,6.98
2023-03-26T04:34:38.962Z,6.98
2023-03-26T04:37:05.517Z,6.98
2023-03-26T04:39:34.052Z,6.96
2023-03-26T04:42:00.756Z,6.93
2023-03-26T04:44:30.205Z,6.87
2023-03-26T04:46:56.780Z,6.89
2023-03-26T04:49:23.181Z,6.93
2023-03-26T04:51:49.728Z,6.92
2023-03-26T04:54:16.553Z,6.94
2023-03-26T04:56:59.769Z,6.92
2023-03-26T04:59:34.508Z,6.89
2023-03-26T05:02:05.020Z,6.90
2023-03-26T05:04:31.541Z,6.89
2023-03-26T05:06:59.297Z,6.90
2023-03-26T05:09:26.256Z,6.90
2023-03-26T05:11:52.657Z,6.88
2023-03-26T05:14:19.158Z,6.89
2023-03-26T05:16:46.426Z,6.90
2023-03-26T05:19:13.027Z,6.92
2023-03-26T05:21:39.361Z,6.90
2023-03-26T05:24:06.352Z,6.89
2023-03-26T05:26:33.620Z,6.86
2023-03-26T05:29:00.241Z,6.86
2023-03-26T05:31:32.686Z,6.88
2023-03-26T05:34:00.620Z,6.88
2023-03-26T05:36:28.346Z,6.83
2023-03-26T05:38:56.472Z,6.84
2023-03-26T05:41:22.817Z,6.83
2023-03-26T05:43:49.196Z,6.82
2023-03-26T05:46:15.698Z,6.84
2023-03-26T05:48:42.187Z,6.83
2023-03-26T05:51:08.712Z,6.83
2023-03-26T05:53:35.192Z,6.85
2023-03-26T05:56:01.980Z,6.85
2023-03-26T05:58:29.327Z,6.92
2023-03-26T06:01:09.493Z,6.97
2023-03-26T06:03:39.988Z,7.05
2023-03-26T06:06:07.721Z,7.13
2023-03-26T06:08:34.257Z,7.19
2023-03-26T06:11:01.837Z,7.23
2023-03-26T06:13:28.332Z,7.28
2023-03-26T06:15:54.733Z,7.31
2023-03-26T06:18:21.246Z,7.36
2023-03-26T06:20:47.620Z,7.39
2023-03-26T06:23:13.976Z,7.40
2023-03-26T06:25:41.287Z,7.43
2023-03-26T06:28:07.622Z,7.48
2023-03-26T06:30:34.179Z,7.53
2023-03-26T06:33:00.603Z,7.53
2023-03-26T06:35:27.217Z,7.57
2023-03-26T06:37:53.551Z,7.59
2023-03-26T06:40:20.101Z,7.65
2023-03-26T06:43:07.064Z,7.65
2023-03-26T06:45:33.282Z,7.68
2023-03-26T06:48:00.141Z,7.68
2023-03-26T06:50:27.349Z,7.69
2023-03-26T06:52:54.793Z,7.74
2023-03-26T06:55:21.198Z,7.76
2023-03-26T06:57:54.517Z,7.79
2023-03-26T07:00:21.017Z,7.81
2023-03-26T07:02:47.480Z,7.85
2023-03-26T07:05:14.176Z,7.91
2023-03-26T07:07:46.422Z,7.92
2023-03-26T07:10:13.435Z,7.91
2023-03-26T07:12:39.822Z,7.98
2023-03-26T07:15:06.803Z,7.97
2023-03-26T07:17:33.191Z,7.99
2023-03-26T07:20:01.339Z,8.02
2023-03-26T07:22:27.967Z,8.03
2023-03-26T07:24:54.802Z,8.03
2023-03-26T07:27:37.678Z,8.05
2023-03-26T07:30:35.431Z,8.09
2023-03-26T07:33:05.708Z,8.15
2023-03-26T07:35:53.189Z,8.17
2023-03-26T07:38:44.391Z,8.24
2023-03-26T07:41:41.370Z,8.21
2023-03-26T07:44:34.630Z,8.24
2023-03-26T07:47:04.915Z,8.30
2023-03-26T07:49:31.573Z,8.33
2023-03-26T07:51:58.621Z,8.34
2023-03-26T07:54:25.574Z,8.38
2023-03-26T07:56:58.842Z,8.42
2023-03-26T07:59:37.097Z,8.44
2023-03-26T08:02:25.360Z,8.39
2023-03-26T08:05:21.293Z,8.39
2023-03-26T08:07:53.704Z,8.45
2023-03-26T08:10:27.388Z,8.44
2023-03-26T08:13:06.441Z,8.50
2023-03-26T08:15:45.121Z,8.58
2023-03-26T08:18:35.629Z,8.63
2023-03-26T08:21:27.232Z,8.76
2023-03-26T08:24:00.929Z,8.72
2023-03-26T08:26:44.174Z,8.65
2023-03-26T08:29:21.347Z,8.51
2023-03-26T08:31:48.276Z,8.59
2023-03-26T08:34:14.720Z,8.59
2023-03-26T08:36:41.151Z,8.66
2023-03-26T08:39:08.434Z,8.75
2023-03-26T08:41:43.785Z,8.80
2023-03-26T08:44:22.461Z,8.85
2023-03-26T08:47:10.204Z,8.91
2023-03-26T08:49:58.509Z,8.99
2023-03-26T08:52:43.593Z,9.07
2023-03-26T08:55:20.763Z,9.14
2023-03-26T08:58:11.934Z,9.12
2023-03-26T09:01:03.058Z,9.23
2023-03-26T09:03:39.243Z,9.29
2023-03-26T09:06:31.104Z,9.19
2023-03-26T09:09:19.266Z,9.18
2023-03-26T09:12:07.994Z,9.15
2023-03-26T09:14:45.370Z,9.12
2023-03-26T09:17:27.695Z,9.16
2023-03-26T09:20:21.894Z,9.11
2023-03-26T09:22:59.586Z,9.11
2023-03-26T09:25:47.607Z,9.12
2023-03-26T09:28:32.252Z,9.20
2023-03-26T09:31:36.074Z,9.19
2023-03-26T09:34:20.591Z,9.17
2023-03-26T09:37:26.644Z,9.26
2023-03-26T09:40:12.008Z,9.25
2023-03-26T09:42:56.258Z,9.21
2023-03-26T09:45:38.706Z,9.15
2023-03-26T09:48:20.025Z,9.26
2023-03-26T09:51:07.733Z,9.36
2023-03-26T09:54:06.653Z,9.42
2023-03-26T09:56:58.020Z,9.55
2023-03-26T09:59:46.948Z,9.63
2023-03-26T10:02:22.567Z,9.78
2023-03-26T10:05:41.351Z,9.94
2023-03-26T10:08:24.643Z,10.05
2023-03-26T10:10:58.278Z,10.12
2023-03-26T10:13:52.420Z,10.24
2023-03-26T10:16:27.978Z,10.43
2023-03-26T10:19:19.093Z,10.44
2023-03-26T10:21:52.210Z,10.49
2023-03-26T10:24:30.750Z,10.54
2023-03-26T10:27:13.740Z,10.58
2023-03-26T10:30:11.240Z,10.63
2023-03-26T10:33:04.964Z,10.45
2023-03-26T10:36:02.278Z,10.39
2023-03-26T10:38:52.079Z,10.32
2023-03-26T10:41:21.572Z,10.26
2023-03-26T10:44:07.395Z,10.24
2023-03-26T10:46:41.050Z,10.19
2023-03-26T10:49:13.554Z,10.24
2023-03-26T10:51:53.586Z,10.21
2023-03-26T10:54:44.445Z,10.09
2023-03-26T10:57:43.899Z,10.13
2023-03-26T11:00:17.583Z,10.21
2023-03-26T11:03:11.192Z,10.25
2023-03-26T11:05:49.276Z,10.33
2023-03-26T11:08:18.615Z,10.40
2023-03-26T11:11:11.074Z,10.44
2023-03-26T11:13:58.823Z,10.39
2023-03-26T11:16:51.382Z,10.41
2023-03-26T11:19:53.189Z,10.49
2023-03-26T11:22:25.117Z,10.54
2023-03-26T11:25:06.954Z,10.56
2023-03-26T11:27:39.999Z,10.51
2023-03-26T11:30:16.638Z,10.53
2023-03-26T11:32:45.271Z,10.59
2023-03-26T11:35:39.878Z,10.89
2023-03-26T11:38:21.656Z,11.04
2023-03-26T11:40:50.657Z,11.12
2023-03-26T11:43:19.085Z,11.18
2023-03-26T11:45:46.120Z,11.27
2023-03-26T11:48:17.115Z,11.45
2023-03-26T11:50:52.461Z,11.78
2023-03-26T11:53:20.616Z,12.08
2023-03-26T11:56:00.866Z,12.42
2023-03-26T11:58:30.987Z,12.25
2023-03-26T12:00:57.494Z,11.98
2023-03-26T12:03:24.181Z,11.89
2023-03-26T12:05:53.967Z,12.00
2023-03-26T12:08:39.097Z,11.99
2023-03-26T12:11:11.751Z,11.84
2023-03-26T12:13:43.460Z,11.61
2023-03-26T12:16:14.423Z,11.47
2023-03-26T12:18:43.154Z,11.42
2023-03-26T12:21:12.583Z,11.42
2023-03-26T12:23:43.695Z,11.41
2023-03-26T12:26:14.297Z,11.40
2023-03-26T12:28:44.632Z,11.27
2023-03-26T12:31:11.813Z,11.39
2023-03-26T12:33:38.940Z,11.40
2023-03-26T12:36:24.618Z,11.35
2023-03-26T12:39:16.811Z,11.56
2023-03-26T12:44:42.879Z,11.60
2023-03-26T12:44:59.279Z,11.66
2023-03-26T12:47:57.978Z,11.68
2023-03-26T12:50:17.336Z,11.62
2023-03-26T12:52:56.412Z,11.57
2023-03-26T12:55:36.719Z,11.51
2023-03-26T12:58:13.729Z,11.40
2023-03-26T13:01:07.727Z,11.35
2023-03-26T13:03:41.988Z,11.32
2023-03-26T13:06:27.583Z,11.32
2023-03-26T13:09:07.121Z,11.39
2023-03-26T13:11:36.444Z,11.44
2023-03-26T13:14:32.785Z,11.59
2023-03-26T13:17:15.040Z,11.95
2023-03-26T13:20:15.746Z,12.22
2023-03-26T13:22:57.500Z,12.30
2023-03-26T13:25:27.019Z,12.35
2023-03-26T13:28:23.800Z,12.26
2023-03-26T13:31:13.092Z,11.99
2023-03-26T13:34:21.151Z,11.91
2023-03-26T13:37:14.607Z,11.86
2023-03-26T13:39:51.006Z,11.86
2023-03-26T13:42:21.759Z,11.92
2023-03-26T13:44:52.671Z,11.98
2023-03-26T13:47:34.712Z,11.98
2023-03-26T13:50:10.188Z,11.86
2023-03-26T13:52:43.964Z,11.91
2023-03-26T13:55:22.776Z,11.92
2023-03-26T13:58:00.144Z,11.96
2023-03-26T14:00:32.446Z,11.96
2023-03-26T14:03:03.604Z,11.87
2023-03-26T14:05:49.768Z,11.77
2023-03-26T14:08:25.118Z,11.72
2023-03-26T14:10:54.426Z,11.69
2023-03-26T14:13:30.406Z,11.61
2023-03-26T14:16:17.058Z,11.59
2023-03-26T14:18:47.603Z,11.59
2023-03-26T14:21:50.571Z,11.52
2023-03-26T14:24:20.311Z,11.36
2023-03-26T14:27:05.442Z,11.36
2023-03-26T14:29:57.010Z,11.34
2023-03-26T14:32:46.619Z,11.35
2023-03-26T14:35:33.620Z,11.30
2023-03-26T14:38:12.333Z,11.27
2023-03-26T14:41:08.170Z,11.27
2023-03-26T14:43:41.809Z,11.27
2023-03-26T14:46:31.294Z,11.27
2023-03-26T14:49:03.819Z,11.23
2023-03-26T14:51:49.062Z,11.13
2023-03-26T14:54:23.404Z,10.99
2023-03-26T14:56:58.223Z,11.04
2023-03-26T14:59:55.880Z,10.95
2023-03-26T15:02:22.718Z,10.87
2023-03-26T15:05:11.285Z,10.82
2023-03-26T15:08:19.856Z,10.80
2023-03-26T15:11:24.292Z,10.74
2023-03-26T15:14:20.920Z,10.71
2023-03-26T15:17:12.534Z,10.71
2023-03-26T15:19:48.329Z,10.69
2023-03-26T15:22:39.520Z,10.68
2023-03-26T15:25:33.209Z,10.68
2023-03-26T15:28:24.572Z,10.62
2023-03-26T15:31:31.706Z,10.55
2023-03-26T15:34:07.383Z,10.54
2023-03-26T15:36:37.172Z,10.58
2023-03-26T15:39:37.973Z,10.59
2023-03-26T15:42:10.985Z,10.57
2023-03-26T15:45:08.804Z,10.53
2023-03-26T15:47:37.989Z,10.46
2023-03-26T15:50:16.877Z,10.44
2023-03-26T15:52:52.050Z,10.36
2023-03-26T15:55:27.674Z,10.27
2023-03-26T15:58:04.178Z,10.13
2023-03-26T16:00:41.950Z,10.08
2023-03-26T16:03:15.462Z,10.06
2023-03-26T16:05:54.020Z,10.03
2023-03-26T16:08:26.889Z,10.03
2023-03-26T16:11:00.301Z,9.98
2023-03-26T16:13:43.557Z,9.92
2023-03-26T16:16:11.571Z,9.92
2023-03-26T16:18:54.209Z,9.85
2023-03-26T16:21:38.372Z,9.84
2023-03-26T16:24:08.166Z,9.80
2023-03-26T16:26:43.807Z,9.79
2023-03-26T16:29:18.297Z,9.71
2023-03-26T16:32:09.837Z,9.69
2023-03-26T16:34:55.613Z,9.71
2023-03-26T16:37:40.770Z,9.66
2023-03-26T16:40:25.348Z,9.65
2023-03-26T16:42:57.682Z,9.61
2023-03-26T16:45:37.088Z,9.58
2023-03-26T16:48:41.258Z,9.54
2023-03-26T16:51:35.292Z,9.47
2023-03-26T16:54:36.713Z,9.40
2023-03-26T16:57:28.494Z,9.36
2023-03-26T17:00:15.994Z,9.35
2023-03-26T17:03:12.849Z,9.36
2023-03-26T17:05:56.412Z,9.28
2023-03-26T17:08:47.785Z,9.26
2023-03-26T17:11:41.961Z,9.22
2023-03-26T17:14:11.285Z,9.11
2023-03-26T17:16:41.050Z,9.09
2023-03-26T17:19:29.571Z,9.04
2023-03-26T17:22:17.005Z,9.03
2023-03-26T17:25:11.945Z,9.06
2023-03-26T17:27:49.821Z,8.99
2023-03-26T17:30:48.404Z,8.92
2023-03-26T17:33:34.643Z,8.91
2023-03-26T17:36:16.071Z,8.89
2023-03-26T17:38:48.597Z,8.86
2023-03-26T17:41:35.904Z,8.79
2023-03-26T17:44:05.757Z,8.74
2023-03-26T17:46:33.086Z,8.72
2023-03-26T17:49:12.749Z,8.68
2023-03-26T17:51:52.599Z,8.63
2023-03-26T17:54:41.302Z,8.56
2023-03-26T17:57:22.806Z,8.59
2023-03-26T17:59:50.112Z,8.57
2023-03-26T18:02:21.682Z,8.56
2023-03-26T18:04:51.101Z,8.51
2023-03-26T18:07:31.132Z,8.48
2023-03-26T18:10:16.860Z,8.37
2023-03-26T18:13:32.812Z,8.38
2023-03-26T18:16:09.444Z,8.36
2023-03-26T18:18:53.880Z,8.31
2023-03-26T18:21:35.942Z,8.28
2023-03-26T18:24:03.222Z,8.25
2023-03-26T18:26:37.583Z,8.21
2023-03-26T18:29:27.427Z,8.20
2023-03-26T18:32:00.276Z,8.16
2023-03-26T18:34:31.860Z,8.17
2023-03-26T18:37:08.363Z,8.16
2023-03-26T18:39:34.941Z,8.14
2023-03-26T18:42:01.322Z,8.11
2023-03-26T18:44:27.913Z,8.07
2023-03-26T18:46:55.263Z,8.01
2023-03-26T18:49:21.697Z,8.01
2023-03-26T18:51:56.894Z,8.01
2023-03-26T18:54:24.066Z,8.02
2023-03-26T18:56:52.142Z,8.03
2023-03-26T18:59:35.044Z,8.05
2023-03-26T19:02:07.282Z,8.05
2023-03-26T19:04:34.876Z,8.03
2023-03-26T19:07:01.547Z,8.03
2023-03-26T19:09:32.049Z,7.96
2023-03-26T19:12:17.445Z,7.94
2023-03-26T19:15:12.204Z,7.93
2023-03-26T19:17:45.879Z,7.93
2023-03-26T19:20:21.649Z,7.96
2023-03-26T19:22:48.105Z,7.91
2023-03-26T19:25:26.621Z,7.89
2023-03-26T19:27:53.004Z,7.92
2023-03-26T19:30:33.836Z,7.87
2023-03-26T19:33:12.667Z,7.89
2023-03-26T19:35:40.626Z,7.87
2023-03-26T19:38:23.890Z,7.77
2023-03-26T19:40:52.359Z,7.74
2023-03-26T19:43:18.749Z,7.74
2023-03-26T19:46:00.399Z,7.69
2023-03-26T19:48:46.046Z,7.60
2023-03-26T19:51:19.944Z,7.54
2023-03-26T19:53:53.698Z,7.54
2023-03-26T19:56:20.709Z,7.46
2023-03-26T19:58:47.230Z,7.42
2023-03-26T20:01:19.881Z,7.38
2023-03-26T20:03:48.213Z,7.36
2023-03-26T20:06:16.711Z,7.31
2023-03-26T20:08:43.718Z,7.25
2023-03-26T20:11:21.461Z,7.18
2023-03-26T20:13:48.490Z,7.08
2023-03-26T20:16:20.202Z,7.06
2023-03-26T20:18:47.611Z,6.95
2023-03-26T20:21:14.060Z,6.93
2023-03-26T20:23:40.816Z,6.89
2023-03-26T20:26:11.152Z,6.80
2023-03-26T20:28:47.284Z,6.77
2023-03-26T20:31:17.363Z,6.75
2023-03-26T20:33:43.764Z,6.70
2023-03-26T20:36:12.892Z,6.66
2023-03-26T20:38:40.940Z,6.59
2023-03-26T20:41:10.193Z,6.51
2023-03-26T20:43:36.609Z,6.47
2023-03-26T20:46:03.946Z,6.46
2023-03-26T20:48:30.418Z,6.40
2023-03-26T20:50:57.062Z,6.33
2023-03-26T20:53:23.748Z,6.29
2023-03-26T20:55:51.634Z,6.20
2023-03-26T20:58:31.645Z,6.20
2023-03-26T21:01:00.308Z,6.17
2023-03-26T21:03:26.737Z,6.11
2023-03-26T21:05:53.237Z,6.08
2023-03-26T21:08:20.114Z,6.00
2023-03-26T21:10:46.806Z,5.99
2023-03-26T21:13:19.444Z,5.98
2023-03-26T21:15:46.663Z,5.99
2023-03-26T21:18:13.480Z,5.96
2023-03-26T21:20:40.106Z,5.91
2023-03-26T21:23:06.472Z,5.91
2023-03-26T21:25:42.122Z,5.90
2023-03-26T21:28:42.600Z,5.83
2023-03-26T21:31:23.983Z,5.76
2023-03-26T21:33:50.967Z,5.76
2023-03-26T21:36:18.530Z,5.74
2023-03-26T21:38:45.479Z,5.74
2023-03-26T21:41:23.985Z,5.72
2023-03-26T21:43:51.049Z,5.71
2023-03-26T21:46:17.806Z,5.71
2023-03-26T21:48:44.527Z,5.66
2023-03-26T21:51:14.567Z,5.70
2023-03-26T21:53:42.333Z,5.58
2023-03-26T21:56:40.157Z,5.60
2023-03-26T21:59:10.078Z,5.68
2023-03-26T22:02:01.705Z,5.61
2023-03-26T22:04:58.520Z,5.63
2023-03-26T22:07:47.362Z,5.60
2023-03-26T22:10:13.805Z,5.63
2023-03-26T22:12:40.144Z,5.59
2023-03-26T22:15:07.458Z,5.55
2023-03-26T22:17:33.843Z,5.48
2023-03-26T22:20:01.399Z,5.52
2023-03-26T22:22:28.769Z,5.56
2023-03-26T22:24:55.136Z,5.55
2023-03-26T22:27:21.469Z,5.54
2023-03-26T22:29:48.373Z,5.53
2023-03-26T22:32:14.725Z,5.51
2023-03-26T22:34:42.066Z,5.51
2023-03-26T22:37:08.416Z,5.48
2023-03-26T22:39:34.847Z,5.46
2023-03-26T22:42:03.830Z,5.47
2023-03-26T22:44:31.198Z,5.44
2023-03-26T22:46:57.594Z,5.46
2023-03-26T22:49:27.307Z,5.51
2023-03-26T22:51:53.680Z,5.52
2023-03-26T22:54:20.415Z,5.46
2023-03-26T22:56:46.852Z,5.46
2023-03-26T22:59:13.310Z,5.48
2023-03-26T23:01:40.141Z,5.44
2023-03-26T23:04:07.010Z,5.44
2023-03-26T23:06:33.806Z,5.41
2023-03-26T23:09:01.009Z,5.38
2023-03-26T23:11:29.488Z,5.34
2023-03-26T23:13:56.629Z,5.31
2023-03-26T23:16:23.029Z,5.24
2023-03-26T23:18:49.537Z,5.16
2023-03-26T23:21:20.448Z,5.13
2023-03-26T23:23:47.863Z,5.16
2023-03-26T23:26:15.016Z,5.19
2023-03-26T23:28:41.564Z,5.15
2023-03-26T23:31:09.130Z,5.14
2023-03-26T23:33:37.000Z,5.16
2023-03-26T23:36:08.981Z,5.17
2023-03-26T23:38:43.764Z,5.17
2023-03-26T23:41:15.476Z,5.15
2023-03-26T23:43:53.596Z,5.15
2023-03-26T23:46:23.888Z,5.08
2023-03-26T23:48:55.087Z,5.04
2023-03-26T23:51:21.682Z,5.04
2023-03-26T23:53:49.060Z,5.03
2023-03-26T23:56:16.242Z,5.05
2023-03-26T23:58:42.881Z,4.95
